Griffin, North Dakota
Current Conditions -  °F | °C
As of 1:53 PM on Tuesday 21 Oct 2014 (Local Time) from KHEI Reporting Station
Clear Clear  
Wind Chill: 79°   Ceiling: Unl
Heat Index: 79°   Visibility: 10mi
Dew Point: 43°   Wind: 18mph
Humidity: 28%   Direction: 190°S
Pressure: 29.68"   Gusts: 25mph
Location:  46.1126°N, 103.431°W
Report Text: KHEI 211953Z AUTO 19016G22KT 10SM CLR 26/06 A2968 RMK AO2 SLP039 T02610061
Loading
Personal Weather Stations






























Interactive Weather Map
Tropical Storm Tracking
New forecast layout! Learn more

10-Day Weather Forecast

Advertisements
Track Severe Weather on mobile